PWSweather.com
Personal Weather Stations
Station Observations
KNCCHINA3
Red Tractor Trail, China Grove, NC 28023

Red Tractor TrailChina Grove, NC 28023

Lat: 35.59751, Lon: -80.60201

Elevation: 800

Station Type: Oregon Scientific WMR 968

http://www.joesweathergarage.com

High Low Average
Temperature 73.4°F23.0°C 38.7°F3.7°C 56.6°F13.7°C
Dew Point 49.8°F9.9°C 22.1°F-5.5°C 37.7°F3.2°C
Winds 11.2 mph 18.0 kmh Calm Calm 4.0 mph SSW6.4 kmh SSW
Wind Gusts 20.6 mph33.2 kmh -- 7.0 mph11.3 kmh
Humidity 87% 34% 51%
Pressure 30.09 in1019.0 mb 29.83 in1010.2 mb -
Precipitation 0.00 in0.0 mm - -
Hour Temp Dew Point Humidity Winds Wind Gusts Pressure Precip Precip Rate Daily Precip Total
12:01 AM 48.3°F9.1°C 25.4°F-3.7°C 41% 6.2 mph S10.0 kmh S 7.6 mph12.2 kmh 30.09 in1019.0 mb 0.00 in0.0 mm 0.00 in0.0 mm 0.00 in0.0 mm
12:06 AM 48.3°F9.1°C 25.4°F-3.7°C 41% 6.2 mph S10.0 kmh S 8.0 mph12.9 kmh 30.09 in1019.0 mb 0.00 in0.0 mm 0.00 in0.0 mm 0.00 in0.0 mm
12:11 AM 48.3°F9.1°C 25.4°F-3.7°C 41% 4.0 mph S6.4 kmh S 8.6 mph13.8 kmh 30.12 in1020.0 mb 0.00 in0.0 mm 0.00 in0.0 mm 0.00 in0.0 mm
12:16 AM 48.1°F8.9°C 25.2°F-3.8°C 41% 4.9 mph SSW7.9 kmh SSW 8.6 mph13.8 kmh 30.12 in1020.0 mb 0.00 in0.0 mm 0.00 in0.0 mm 0.00 in0.0 mm
12:21 AM 48.1°F8.9°C 25.2°F-3.8°C 41% 5.0 mph S8.0 kmh S 7.2 mph11.6 kmh 30.12 in1020.0 mb 0.00 in0.0 mm 0.00 in0.0 mm 0.00 in0.0 mm
12:26 AM 48.1°F8.9°C 25.2°F-3.8°C 41% 5.4 mph S8.7 kmh S 7.2 mph11.6 kmh 30.09 in1019.0 mb 0.00 in0.0 mm 0.00 in0.0 mm 0.00 in0.0 mm
12:31 AM 47.9°F8.8°C 25.1°F-3.8°C 41% 5.4 mph SSE8.7 kmh SSE 7.2 mph11.6 kmh 30.09 in1019.0 mb 0.00 in0.0 mm 0.00 in0.0 mm 0.00 in0.0 mm
12:36 AM 47.7°F8.7°C 24.9°F-3.9°C 41% 5.6 mph S9.0 kmh S 8.0 mph12.9 kmh 30.09 in1019.0 mb 0.00 in0.0 mm 0.00 in0.0 mm 0.00 in0.0 mm
12:41 AM 47.6°F8.7°C 24.8°F-4.0°C 41% 4.6 mph SSE7.4 kmh SSE 8.0 mph12.9 kmh 30.09 in1019.0 mb 0.00 in0.0 mm 0.00 in0.0 mm 0.00 in0.0 mm
12:46 AM 47.4°F8.6°C 24.6°F-4.1°C 41% 4.8 mph SSE7.7 kmh SSE 6.8 mph10.9 kmh 30.09 in1019.0 mb 0.00 in0.0 mm 0.00 in0.0 mm 0.00 in0.0 mm
12:51 AM 47.4°F8.6°C 24.6°F-4.1°C 41% 4.3 mph SSE6.9 kmh SSE 6.8 mph10.9 kmh 30.09 in1019.0 mb 0.00 in0.0 mm 0.00 in0.0 mm 0.00 in0.0 mm
12:56 AM 47.2°F8.4°C 24.4°F-4.2°C 41% 4.7 mph SSE7.6 kmh SSE 5.8 mph9.3 kmh 30.09 in1019.0 mb 0.00 in0.0 mm 0.00 in0.0 mm 0.00 in0.0 mm
01:01 AM 47.2°F8.4°C 24.4°F-4.2°C 41% 4.9 mph S7.9 kmh S 5.8 mph9.3 kmh 30.09 in1019.0 mb 0.00 in0.0 mm 0.00 in0.0 mm 0.00 in0.0 mm
01:06 AM 47.2°F8.4°C 24.4°F-4.2°C 41% 4.8 mph S7.7 kmh S 6.8 mph10.9 kmh 30.09 in1019.0 mb 0.00 in0.0 mm 0.00 in0.0 mm 0.00 in0.0 mm
01:11 AM 47.0°F8.3°C 24.3°F-4.3°C 41% 4.2 mph S6.8 kmh S 6.8 mph10.9 kmh 30.09 in1019.0 mb 0.00 in0.0 mm 0.00 in0.0 mm 0.00 in0.0 mm
01:16 AM 46.7°F8.2°C 24.0°F-4.4°C 41% 4.1 mph SSE6.6 kmh SSE 5.4 mph8.7 kmh 30.09 in1019.0 mb 0.00 in0.0 mm 0.00 in0.0 mm 0.00 in0.0 mm
01:21 AM 46.3°F7.9°C 23.6°F-4.7°C 41% 4.8 mph SSE7.7 kmh SSE 5.4 mph8.7 kmh 30.09 in1019.0 mb 0.00 in0.0 mm 0.00 in0.0 mm 0.00 in0.0 mm
01:26 AM 46.5°F8.1°C 23.8°F-4.6°C 41% 5.0 mph S8.0 kmh S 5.8 mph9.3 kmh 30.09 in1019.0 mb 0.00 in0.0 mm 0.00 in0.0 mm 0.00 in0.0 mm
01:31 AM 46.5°F8.1°C 23.8°F-4.6°C 41% 5.3 mph S8.5 kmh S 5.8 mph9.3 kmh 30.09 in1019.0 mb 0.00 in0.0 mm 0.00 in0.0 mm 0.00 in0.0 mm
01:37 AM 46.7°F8.2°C 24.0°F-4.4°C 41% 4.3 mph S6.9 kmh S 7.2 mph11.6 kmh 30.09 in1019.0 mb 0.00 in0.0 mm 0.00 in0.0 mm 0.00 in0.0 mm
01:42 AM 46.1°F7.8°C 24.0°F-4.4°C 42% 3.8 mph S6.1 kmh S 5.8 mph9.3 kmh 30.09 in1019.0 mb 0.00 in0.0 mm 0.00 in0.0 mm 0.00 in0.0 mm
01:47 AM 45.8°F7.7°C 23.8°F-4.6°C 42% 2.8 mph S4.5 kmh S 5.0 mph8.0 kmh 30.09 in1019.0 mb 0.00 in0.0 mm 0.00 in0.0 mm 0.00 in0.0 mm
01:52 AM 45.2°F7.3°C 23.2°F-4.9°C 42% 2.2 mph S3.5 kmh S 4.4 mph7.1 kmh 30.09 in1019.0 mb 0.00 in0.0 mm 0.00 in0.0 mm 0.00 in0.0 mm
01:59 AM 44.3°F6.8°C 23.0°F-5.0°C 43% 1.8 mph S2.9 kmh S 2.6 mph4.2 kmh 30.09 in1019.0 mb 0.00 in0.0 mm 0.00 in0.0 mm 0.00 in0.0 mm
02:04 AM 43.8°F6.6°C 22.5°F-5.3°C 43% Calm Calm 2.6 mph4.2 kmh 30.09 in1019.0 mb 0.00 in0.0 mm 0.00 in0.0 mm 0.00 in0.0 mm
02:10 AM 43.1°F6.2°C 22.4°F-5.3°C 44% Calm Calm -- 30.09 in1019.0 mb 0.00 in0.0 mm 0.00 in0.0 mm 0.00 in0.0 mm
02:16 AM 42.7°F5.9°C 22.1°F-5.5°C 44% Calm Calm -- 30.09 in1019.0 mb 0.00 in0.0 mm 0.00 in0.0 mm 0.00 in0.0 mm
02:21 AM 42.3°F5.7°C 22.3°F-5.4°C 45% Calm Calm -- 30.09 in1019.0 mb 0.00 in0.0 mm 0.00 in0.0 mm 0.00 in0.0 mm
02:26 AM 42.2°F5.7°C 22.2°F-5.4°C 45% Calm Calm -- 30.09 in1019.0 mb 0.00 in0.0 mm 0.00 in0.0 mm 0.00 in0.0 mm
02:31 AM 42.0°F5.6°C 22.5°F-5.3°C 46% Calm Calm -- 30.09 in1019.0 mb 0.00 in0.0 mm 0.00 in0.0 mm 0.00 in0.0 mm
02:36 AM 41.6°F5.3°C 23.2°F-4.9°C 48% Calm Calm -- 30.09 in1019.0 mb 0.00 in0.0 mm 0.00 in0.0 mm 0.00 in0.0 mm
02:42 AM 41.1°F5.1°C 23.3°F-4.8°C 49% Calm Calm -- 30.09 in1019.0 mb 0.00 in0.0 mm 0.00 in0.0 mm 0.00 in0.0 mm
02:47 AM 40.9°F4.9°C 23.1°F-4.9°C 49% Calm Calm -- 30.09 in1019.0 mb 0.00 in0.0 mm 0.00 in0.0 mm 0.00 in0.0 mm
02:53 AM 40.7°F4.8°C 23.4°F-4.8°C 50% Calm Calm -- 30.09 in1019.0 mb 0.00 in0.0 mm 0.00 in0.0 mm 0.00 in0.0 mm
02:58 AM 40.9°F4.9°C 23.6°F-4.7°C 50% Calm Calm -- 30.09 in1019.0 mb 0.00 in0.0 mm 0.00 in0.0 mm 0.00 in0.0 mm
03:03 AM 40.7°F4.8°C 23.9°F-4.5°C 51% Calm Calm -- 30.09 in1019.0 mb 0.00 in0.0 mm 0.00 in0.0 mm 0.00 in0.0 mm
03:08 AM 40.5°F4.7°C 24.2°F-4.3°C 52% Calm Calm -- 30.06 in1017.9 mb 0.00 in0.0 mm 0.00 in0.0 mm 0.00 in0.0 mm
03:13 AM 40.4°F4.7°C 24.1°F-4.4°C 52% Calm Calm -- 30.06 in1017.9 mb 0.00 in0.0 mm 0.00 in0.0 mm 0.00 in0.0 mm
03:18 AM 40.4°F4.7°C 24.1°F-4.4°C 52% Calm Calm -- 30.06 in1017.9 mb 0.00 in0.0 mm 0.00 in0.0 mm 0.00 in0.0 mm
03:23 AM 40.2°F4.6°C 24.4°F-4.2°C 53% Calm Calm -- 30.06 in1017.9 mb 0.00 in0.0 mm 0.00 in0.0 mm 0.00 in0.0 mm
03:28 AM 39.8°F4.3°C 24.0°F-4.4°C 53% Calm Calm -- 30.06 in1017.9 mb 0.00 in0.0 mm 0.00 in0.0 mm 0.00 in0.0 mm
03:34 AM 39.8°F4.3°C 24.0°F-4.4°C 53% Calm Calm -- 30.06 in1017.9 mb 0.00 in0.0 mm 0.00 in0.0 mm 0.00 in0.0 mm
03:39 AM 39.8°F4.3°C 24.0°F-4.4°C 53% Calm Calm -- 30.06 in1017.9 mb 0.00 in0.0 mm 0.00 in0.0 mm 0.00 in0.0 mm
03:44 AM 39.8°F4.3°C 24.0°F-4.4°C 53% Calm Calm -- 30.06 in1017.9 mb 0.00 in0.0 mm 0.00 in0.0 mm 0.00 in0.0 mm
03:49 AM 39.6°F4.2°C 23.8°F-4.6°C 53% Calm Calm -- 30.06 in1017.9 mb 0.00 in0.0 mm 0.00 in0.0 mm 0.00 in0.0 mm
03:54 AM 39.6°F4.2°C 23.8°F-4.6°C 53% Calm Calm -- 30.06 in1017.9 mb 0.00 in0.0 mm 0.00 in0.0 mm 0.00 in0.0 mm
03:59 AM 39.6°F4.2°C 23.8°F-4.6°C 53% Calm Calm -- 30.06 in1017.9 mb 0.00 in0.0 mm 0.00 in0.0 mm 0.00 in0.0 mm
04:04 AM 39.5°F4.2°C 23.7°F-4.6°C 53% Calm Calm -- 30.06 in1017.9 mb 0.00 in0.0 mm 0.00 in0.0 mm 0.00 in0.0 mm
04:09 AM 39.5°F4.2°C 23.7°F-4.6°C 53% Calm Calm -- 30.03 in1016.9 mb 0.00 in0.0 mm 0.00 in0.0 mm 0.00 in0.0 mm
04:14 AM 39.3°F4.1°C 24.0°F-4.4°C 54% Calm Calm -- 30.03 in1016.9 mb 0.00 in0.0 mm 0.00 in0.0 mm 0.00 in0.0 mm
04:19 AM 39.5°F4.2°C 23.7°F-4.6°C 53% Calm Calm -- 30.03 in1016.9 mb 0.00 in0.0 mm 0.00 in0.0 mm 0.00 in0.0 mm
04:24 AM 39.6°F4.2°C 23.8°F-4.6°C 53% Calm Calm -- 30.03 in1016.9 mb 0.00 in0.0 mm 0.00 in0.0 mm 0.00 in0.0 mm
04:30 AM 39.6°F4.2°C 23.8°F-4.6°C 53% Calm Calm -- 30.03 in1016.9 mb 0.00 in0.0 mm 0.00 in0.0 mm 0.00 in0.0 mm
04:34 AM 40.0°F4.4°C 24.2°F-4.3°C 53% Calm Calm -- 30.03 in1016.9 mb 0.00 in0.0 mm 0.00 in0.0 mm 0.00 in0.0 mm
04:40 AM 40.0°F4.4°C 24.2°F-4.3°C 53% Calm Calm -- 30.03 in1016.9 mb 0.00 in0.0 mm 0.00 in0.0 mm 0.00 in0.0 mm
04:45 AM 39.8°F4.3°C 24.0°F-4.4°C 53% Calm Calm -- 30.03 in1016.9 mb 0.00 in0.0 mm 0.00 in0.0 mm 0.00 in0.0 mm
04:50 AM 39.5°F4.2°C 24.2°F-4.3°C 54% Calm Calm -- 30.03 in1016.9 mb 0.00 in0.0 mm 0.00 in0.0 mm 0.00 in0.0 mm
04:55 AM 39.1°F3.9°C 24.2°F-4.3°C 55% Calm Calm -- 30.03 in1016.9 mb 0.00 in0.0 mm 0.00 in0.0 mm 0.00 in0.0 mm
05:00 AM 38.9°F3.8°C 24.9°F-3.9°C 57% Calm Calm -- 30.03 in1016.9 mb 0.00 in0.0 mm 0.00 in0.0 mm 0.00 in0.0 mm
05:05 AM 38.7°F3.7°C 24.7°F-4.1°C 57% Calm Calm -- 30.03 in1016.9 mb 0.00 in0.0 mm 0.00 in0.0 mm 0.00 in0.0 mm
05:10 AM 38.9°F3.8°C 24.9°F-3.9°C 57% Calm Calm -- 30.03 in1016.9 mb 0.00 in0.0 mm 0.00 in0.0 mm 0.00 in0.0 mm
05:16 AM 38.9°F3.8°C 24.9°F-3.9°C 57% Calm Calm -- 30.03 in1016.9 mb 0.00 in0.0 mm 0.00 in0.0 mm 0.00 in0.0 mm
05:21 AM 38.9°F3.8°C 25.4°F-3.7°C 58% Calm Calm -- 30.03 in1016.9 mb 0.00 in0.0 mm 0.00 in0.0 mm 0.00 in0.0 mm
05:27 AM 39.3°F4.1°C 25.7°F-3.5°C 58% Calm Calm -- 30.03 in1016.9 mb 0.00 in0.0 mm 0.00 in0.0 mm 0.00 in0.0 mm
05:32 AM 39.5°F4.2°C 25.9°F-3.4°C 58% Calm Calm -- 30.03 in1016.9 mb 0.00 in0.0 mm 0.00 in0.0 mm 0.00 in0.0 mm
05:37 AM 39.5°F4.2°C 26.3°F-3.2°C 59% Calm Calm -- 30.03 in1016.9 mb 0.00 in0.0 mm 0.00 in0.0 mm 0.00 in0.0 mm
05:42 AM 39.5°F4.2°C 26.8°F-2.9°C 60% Calm Calm -- 30.03 in1016.9 mb 0.00 in0.0 mm 0.00 in0.0 mm 0.00 in0.0 mm
05:47 AM 39.3°F4.1°C 27.0°F-2.8°C 61% Calm Calm -- 30.03 in1016.9 mb 0.00 in0.0 mm 0.00 in0.0 mm 0.00 in0.0 mm
05:52 AM 39.3°F4.1°C 27.0°F-2.8°C 61% Calm Calm -- 30.06 in1017.9 mb 0.00 in0.0 mm 0.00 in0.0 mm 0.00 in0.0 mm
05:57 AM 39.3°F4.1°C 27.0°F-2.8°C 61% Calm Calm -- 30.06 in1017.9 mb 0.00 in0.0 mm 0.00 in0.0 mm 0.00 in0.0 mm
06:02 AM 39.5°F4.2°C 27.6°F-2.4°C 62% Calm Calm -- 30.06 in1017.9 mb 0.00 in0.0 mm 0.00 in0.0 mm 0.00 in0.0 mm
06:07 AM 39.5°F4.2°C 27.6°F-2.4°C 62% Calm Calm -- 30.06 in1017.9 mb 0.00 in0.0 mm 0.00 in0.0 mm 0.00 in0.0 mm
06:12 AM 39.6°F4.2°C 28.1°F-2.2°C 63% Calm Calm -- 30.06 in1017.9 mb 0.00 in0.0 mm 0.00 in0.0 mm 0.00 in0.0 mm
06:17 AM 39.8°F4.3°C 28.6°F-1.9°C 64% Calm Calm -- 30.06 in1017.9 mb 0.00 in0.0 mm 0.00 in0.0 mm 0.00 in0.0 mm
06:22 AM 39.6°F4.2°C 28.4°F-2.0°C 64% 2.1 mph SSE3.4 kmh SSE 2.2 mph3.5 kmh 30.06 in1017.9 mb 0.00 in0.0 mm 0.00 in0.0 mm 0.00 in0.0 mm
06:27 AM 39.8°F4.3°C 29.4°F-1.4°C 66% 2.6 mph SSE4.2 kmh SSE 3.2 mph5.1 kmh 30.06 in1017.9 mb 0.00 in0.0 mm 0.00 in0.0 mm 0.00 in0.0 mm
06:32 AM 39.8°F4.3°C 29.4°F-1.4°C 66% Calm Calm 3.2 mph5.1 kmh 30.06 in1017.9 mb 0.00 in0.0 mm 0.00 in0.0 mm 0.00 in0.0 mm
06:37 AM 39.8°F4.3°C 29.4°F-1.4°C 66% Calm Calm -- 30.06 in1017.9 mb 0.00 in0.0 mm 0.00 in0.0 mm 0.00 in0.0 mm
06:42 AM 39.6°F4.2°C 29.6°F-1.3°C 67% Calm Calm -- 30.06 in1017.9 mb 0.00 in0.0 mm 0.00 in0.0 mm 0.00 in0.0 mm
06:48 AM 39.8°F4.3°C 30.5°F-0.8°C 69% Calm Calm -- 30.06 in1017.9 mb 0.00 in0.0 mm 0.00 in0.0 mm 0.00 in0.0 mm
06:53 AM 40.2°F4.6°C 30.5°F-0.8°C 68% Calm Calm 2.6 mph4.2 kmh 30.06 in1017.9 mb 0.00 in0.0 mm 0.00 in0.0 mm 0.00 in0.0 mm
06:58 AM 40.4°F4.7°C 31.1°F-0.5°C 69% 2.2 mph SSE3.5 kmh SSE 5.0 mph8.0 kmh 30.06 in1017.9 mb 0.00 in0.0 mm 0.00 in0.0 mm 0.00 in0.0 mm
07:04 AM 40.5°F4.7°C 31.1°F-0.5°C 69% 2.0 mph SSW3.2 kmh SSW 5.0 mph8.0 kmh 30.06 in1017.9 mb 0.00 in0.0 mm 0.00 in0.0 mm 0.00 in0.0 mm
07:09 AM 40.9°F4.9°C 32.2°F0.1°C 71% 2.2 mph S3.5 kmh S 3.2 mph5.1 kmh 30.09 in1019.0 mb 0.00 in0.0 mm 0.00 in0.0 mm 0.00 in0.0 mm
07:14 AM 41.1°F5.1°C 32.8°F0.4°C 72% 2.6 mph S4.2 kmh S 3.2 mph5.1 kmh 30.09 in1019.0 mb 0.00 in0.0 mm 0.00 in0.0 mm 0.00 in0.0 mm
07:19 AM 42.0°F5.6°C 34.6°F1.4°C 75% 2.3 mph SSW3.7 kmh SSW 5.0 mph8.0 kmh 30.09 in1019.0 mb 0.00 in0.0 mm 0.00 in0.0 mm 0.00 in0.0 mm
07:24 AM 42.7°F5.9°C 36.0°F2.2°C 77% 4.1 mph SW6.6 kmh SW 6.2 mph10.0 kmh 30.06 in1017.9 mb 0.00 in0.0 mm 0.00 in0.0 mm 0.00 in0.0 mm
07:30 AM 43.6°F6.4°C 37.2°F2.9°C 78% 4.0 mph SW6.4 kmh SW 6.2 mph10.0 kmh 30.06 in1017.9 mb 0.00 in0.0 mm 0.00 in0.0 mm 0.00 in0.0 mm
07:35 AM 44.7°F7.1°C 37.9°F3.3°C 77% 5.1 mph SW8.2 kmh SW 5.8 mph9.3 kmh 30.06 in1017.9 mb 0.00 in0.0 mm 0.00 in0.0 mm 0.00 in0.0 mm
07:40 AM 45.2°F7.3°C 37.7°F3.2°C 75% 5.2 mph SSW8.4 kmh SSW 6.2 mph10.0 kmh 30.09 in1019.0 mb 0.00 in0.0 mm 0.00 in0.0 mm 0.00 in0.0 mm
07:45 AM 46.1°F7.8°C 38.6°F3.7°C 75% 4.9 mph SSW7.9 kmh SSW 6.2 mph10.0 kmh 30.09 in1019.0 mb 0.00 in0.0 mm 0.00 in0.0 mm 0.00 in0.0 mm
07:54 AM 47.2°F8.4°C 37.9°F3.3°C 70% 4.7 mph SSW7.6 kmh SSW 8.6 mph13.8 kmh 30.09 in1019.0 mb 0.00 in0.0 mm 0.00 in0.0 mm 0.00 in0.0 mm
07:59 AM 47.7°F8.7°C 38.0°F3.3°C 69% 5.3 mph SW8.5 kmh SW 8.6 mph13.8 kmh 30.09 in1019.0 mb 0.00 in0.0 mm 0.00 in0.0 mm 0.00 in0.0 mm
08:05 AM 48.1°F8.9°C 38.1°F3.4°C 68% 5.7 mph SSW9.2 kmh SSW 7.6 mph12.2 kmh 30.09 in1019.0 mb 0.00 in0.0 mm 0.00 in0.0 mm 0.00 in0.0 mm
08:10 AM 48.6°F9.2°C 38.2°F3.4°C 67% 6.0 mph SSW9.7 kmh SSW 8.0 mph12.9 kmh 30.09 in1019.0 mb 0.00 in0.0 mm 0.00 in0.0 mm 0.00 in0.0 mm
08:15 AM 49.2°F9.6°C 38.3°F3.5°C 66% 5.7 mph SSW9.2 kmh SSW 8.0 mph12.9 kmh 30.09 in1019.0 mb 0.00 in0.0 mm 0.00 in0.0 mm 0.00 in0.0 mm
08:20 AM 49.5°F9.7°C 37.8°F3.2°C 64% 6.0 mph SSW9.7 kmh SSW 9.4 mph15.1 kmh 30.09 in1019.0 mb 0.00 in0.0 mm 0.00 in0.0 mm 0.00 in0.0 mm
08:28 AM 50.1°F10.1°C 37.6°F3.1°C 62% 6.9 mph S11.1 kmh S 8.0 mph12.9 kmh 30.06 in1017.9 mb 0.00 in0.0 mm 0.00 in0.0 mm 0.00 in0.0 mm
08:33 AM 50.4°F10.2°C 37.5°F3.1°C 61% 6.4 mph SSW10.3 kmh SSW 8.0 mph12.9 kmh 30.06 in1017.9 mb 0.00 in0.0 mm 0.00 in0.0 mm 0.00 in0.0 mm
08:41 AM 51.3°F10.7°C 37.0°F2.8°C 58% 5.7 mph S9.2 kmh S 9.4 mph15.1 kmh 30.06 in1017.9 mb 0.00 in0.0 mm 0.00 in0.0 mm 0.00 in0.0 mm
08:46 AM 51.9°F11.1°C 36.7°F2.6°C 56% 5.9 mph WSW9.5 kmh WSW 9.4 mph15.1 kmh 30.06 in1017.9 mb 0.00 in0.0 mm 0.00 in0.0 mm 0.00 in0.0 mm
08:51 AM 52.2°F11.2°C 36.5°F2.5°C 55% 5.4 mph SSW8.7 kmh SSW 8.6 mph13.8 kmh 30.06 in1017.9 mb 0.00 in0.0 mm 0.00 in0.0 mm 0.00 in0.0 mm
08:56 AM 52.6°F11.4°C 36.4°F2.4°C 54% 6.4 mph SW10.3 kmh SW 9.4 mph15.1 kmh 30.06 in1017.9 mb 0.00 in0.0 mm 0.00 in0.0 mm 0.00 in0.0 mm
09:01 AM 53.1°F11.7°C 36.8°F2.7°C 54% 6.1 mph S9.8 kmh S 10.8 mph17.4 kmh 30.06 in1017.9 mb 0.00 in0.0 mm 0.00 in0.0 mm 0.00 in0.0 mm
09:06 AM 53.7°F12.1°C 36.9°F2.7°C 53% 6.2 mph SW10.0 kmh SW 10.8 mph17.4 kmh 30.06 in1017.9 mb 0.00 in0.0 mm 0.00 in0.0 mm 0.00 in0.0 mm
09:12 AM 54.0°F12.2°C 36.7°F2.6°C 52% 6.7 mph SSW10.8 kmh SSW 10.8 mph17.4 kmh 30.06 in1017.9 mb 0.00 in0.0 mm 0.00 in0.0 mm 0.00 in0.0 mm
09:17 AM 55.1°F12.8°C 37.7°F3.2°C 52% 6.8 mph SW10.9 kmh SW 10.8 mph17.4 kmh 30.06 in1017.9 mb 0.00 in0.0 mm 0.00 in0.0 mm 0.00 in0.0 mm
09:22 AM 56.4°F13.6°C 38.4°F3.6°C 51% 6.1 mph SSW9.8 kmh SSW 11.6 mph18.7 kmh 30.06 in1017.9 mb 0.00 in0.0 mm 0.00 in0.0 mm 0.00 in0.0 mm
09:27 AM 57.3°F14.1°C 38.7°F3.7°C 50% 5.0 mph SSW8.0 kmh SSW 11.6 mph18.7 kmh 30.06 in1017.9 mb 0.00 in0.0 mm 0.00 in0.0 mm 0.00 in0.0 mm
09:32 AM 57.8°F14.3°C 38.6°F3.7°C 49% 6.8 mph WSW10.9 kmh WSW 9.8 mph15.8 kmh 30.06 in1017.9 mb 0.00 in0.0 mm 0.00 in0.0 mm 0.00 in0.0 mm
09:37 AM 58.5°F14.7°C 39.3°F4.1°C 49% 6.8 mph SW10.9 kmh SW 10.8 mph17.4 kmh 30.06 in1017.9 mb 0.00 in0.0 mm 0.00 in0.0 mm 0.00 in0.0 mm
09:43 AM 59.4°F15.2°C 39.6°F4.2°C 48% 7.0 mph SW11.3 kmh SW 10.8 mph17.4 kmh 30.06 in1017.9 mb 0.00 in0.0 mm 0.00 in0.0 mm 0.00 in0.0 mm
09:48 AM 60.1°F15.6°C 40.3°F4.6°C 48% 6.7 mph WSW10.8 kmh WSW 8.6 mph13.8 kmh 30.06 in1017.9 mb 0.00 in0.0 mm 0.00 in0.0 mm 0.00 in0.0 mm
09:53 AM 60.8°F16.0°C 40.4°F4.7°C 47% 8.7 mph SSW14.0 kmh SSW 11.6 mph18.7 kmh 30.03 in1016.9 mb 0.00 in0.0 mm 0.00 in0.0 mm 0.00 in0.0 mm
09:58 AM 60.8°F16.0°C 40.4°F4.7°C 47% 8.9 mph SSW14.3 kmh SSW 15.6 mph25.1 kmh 30.03 in1016.9 mb 0.00 in0.0 mm 0.00 in0.0 mm 0.00 in0.0 mm
10:03 AM 61.3°F16.3°C 40.8°F4.9°C 47% 6.7 mph WSW10.8 kmh WSW 15.6 mph25.1 kmh 30.03 in1016.9 mb 0.00 in0.0 mm 0.00 in0.0 mm 0.00 in0.0 mm
10:08 AM 61.7°F16.5°C 41.2°F5.1°C 47% 7.0 mph W11.3 kmh W 11.6 mph18.7 kmh 30.03 in1016.9 mb 0.00 in0.0 mm 0.00 in0.0 mm 0.00 in0.0 mm
10:14 AM 62.8°F17.1°C 41.6°F5.3°C 46% 8.9 mph SW14.3 kmh SW 11.6 mph18.7 kmh 30.03 in1016.9 mb 0.00 in0.0 mm 0.00 in0.0 mm 0.00 in0.0 mm
10:19 AM 63.1°F17.3°C 41.9°F5.5°C 46% 7.6 mph S12.2 kmh S 13.0 mph20.9 kmh 30.03 in1016.9 mb 0.00 in0.0 mm 0.00 in0.0 mm 0.00 in0.0 mm
10:24 AM 63.7°F17.6°C 41.9°F5.5°C 45% 9.1 mph W14.6 kmh W 13.0 mph20.9 kmh 30.06 in1017.9 mb 0.00 in0.0 mm 0.00 in0.0 mm 0.00 in0.0 mm
10:29 AM 64.0°F17.8°C 42.1°F5.6°C 45% 5.8 mph WSW9.3 kmh WSW 12.6 mph20.3 kmh 30.06 in1017.9 mb 0.00 in0.0 mm 0.00 in0.0 mm 0.00 in0.0 mm
10:37 AM 63.3°F17.4°C 41.5°F5.3°C 45% 7.5 mph SSW12.1 kmh SSW 13.0 mph20.9 kmh 30.06 in1017.9 mb 0.00 in0.0 mm 0.00 in0.0 mm 0.00 in0.0 mm
10:42 AM 63.7°F17.6°C 41.9°F5.5°C 45% 6.1 mph WSW9.8 kmh WSW 13.0 mph20.9 kmh 30.06 in1017.9 mb 0.00 in0.0 mm 0.00 in0.0 mm 0.00 in0.0 mm
10:48 AM 64.2°F17.9°C 42.3°F5.7°C 45% 6.1 mph SW9.8 kmh SW 9.8 mph15.8 kmh 30.06 in1017.9 mb 0.00 in0.0 mm 0.00 in0.0 mm 0.00 in0.0 mm
10:53 AM 64.2°F17.9°C 41.7°F5.4°C 44% 7.2 mph WSW11.6 kmh WSW 12.6 mph20.3 kmh 30.06 in1017.9 mb 0.00 in0.0 mm 0.00 in0.0 mm 0.00 in0.0 mm
10:59 AM 64.4°F18.0°C 42.5°F5.8°C 45% 7.8 mph SW12.6 kmh SW 13.0 mph20.9 kmh 30.06 in1017.9 mb 0.00 in0.0 mm 0.00 in0.0 mm 0.00 in0.0 mm
11:04 AM 64.4°F18.0°C 41.9°F5.5°C 44% 6.1 mph SW9.8 kmh SW 13.0 mph20.9 kmh 30.06 in1017.9 mb 0.00 in0.0 mm 0.00 in0.0 mm 0.00 in0.0 mm
11:09 AM 65.3°F18.5°C 43.3°F6.3°C 45% 7.7 mph SW12.4 kmh SW 10.8 mph17.4 kmh 30.06 in1017.9 mb 0.00 in0.0 mm 0.00 in0.0 mm 0.00 in0.0 mm
11:14 AM 66.5°F19.2°C 43.8°F6.6°C 44% 7.6 mph WSW12.2 kmh WSW 10.8 mph17.4 kmh 30.06 in1017.9 mb 0.00 in0.0 mm 0.00 in0.0 mm 0.00 in0.0 mm
11:20 AM 66.2°F19.0°C 42.9°F6.1°C 43% 9.7 mph SSW15.6 kmh SSW 12.0 mph19.3 kmh 30.06 in1017.9 mb 0.00 in0.0 mm 0.00 in0.0 mm 0.00 in0.0 mm
11:25 AM 66.7°F19.3°C 43.4°F6.3°C 43% 6.4 mph W10.3 kmh W 12.0 mph19.3 kmh 30.03 in1016.9 mb 0.00 in0.0 mm 0.00 in0.0 mm 0.00 in0.0 mm
11:30 AM 67.6°F19.8°C 43.5°F6.4°C 42% 9.0 mph SW14.5 kmh SW 14.4 mph23.2 kmh 30.03 in1016.9 mb 0.00 in0.0 mm 0.00 in0.0 mm 0.00 in0.0 mm
11:35 AM 67.6°F19.8°C 43.5°F6.4°C 42% 6.2 mph NW10.0 kmh NW 14.4 mph23.2 kmh 30.03 in1016.9 mb 0.00 in0.0 mm 0.00 in0.0 mm 0.00 in0.0 mm
11:42 AM 67.6°F19.8°C 44.2°F6.8°C 43% 8.2 mph W13.2 kmh W 12.0 mph19.3 kmh 30.00 in1015.9 mb 0.00 in0.0 mm 0.00 in0.0 mm 0.00 in0.0 mm
11:47 AM 67.6°F19.8°C 44.2°F6.8°C 43% 6.1 mph S9.8 kmh S 13.0 mph20.9 kmh 30.00 in1015.9 mb 0.00 in0.0 mm 0.00 in0.0 mm 0.00 in0.0 mm
11:52 AM 68.2°F20.1°C 44.1°F6.7°C 42% 5.3 mph WSW8.5 kmh WSW 13.0 mph20.9 kmh 30.00 in1015.9 mb 0.00 in0.0 mm 0.00 in0.0 mm 0.00 in0.0 mm
11:57 AM 69.6°F20.9°C 44.7°F7.1°C 41% 8.5 mph S13.7 kmh S 11.6 mph18.7 kmh 30.00 in1015.9 mb 0.00 in0.0 mm 0.00 in0.0 mm 0.00 in0.0 mm
12:03 PM 69.1°F20.6°C 44.3°F6.8°C 41% 7.1 mph S11.4 kmh S 11.6 mph18.7 kmh 30.00 in1015.9 mb 0.00 in0.0 mm 0.00 in0.0 mm 0.00 in0.0 mm
12:08 PM 68.9°F20.5°C 43.4°F6.3°C 40% 6.9 mph SSE11.1 kmh SSE 10.8 mph17.4 kmh 30.03 in1016.9 mb 0.00 in0.0 mm 0.00 in0.0 mm 0.00 in0.0 mm
12:14 PM 69.2°F20.7°C 43.0°F6.1°C 39% 6.6 mph W10.6 kmh W 12.0 mph19.3 kmh 30.03 in1016.9 mb 0.00 in0.0 mm 0.00 in0.0 mm 0.00 in0.0 mm
12:19 PM 69.8°F21.0°C 42.1°F5.6°C 37% 6.6 mph SSW10.6 kmh SSW 12.0 mph19.3 kmh 30.03 in1016.9 mb 0.00 in0.0 mm 0.00 in0.0 mm 0.00 in0.0 mm
12:24 PM 70.0°F21.1°C 43.0°F6.1°C 38% 7.4 mph WSW11.9 kmh WSW 14.4 mph23.2 kmh 30.03 in1016.9 mb 0.00 in0.0 mm 0.00 in0.0 mm 0.00 in0.0 mm
12:29 PM 70.5°F21.4°C 42.8°F6.0°C 37% 7.1 mph SW11.4 kmh SW 14.4 mph23.2 kmh 30.03 in1016.9 mb 0.00 in0.0 mm 0.00 in0.0 mm 0.00 in0.0 mm
12:38 PM 70.0°F21.1°C 43.0°F6.1°C 38% 7.4 mph W11.9 kmh W 15.2 mph24.5 kmh 30.00 in1015.9 mb 0.00 in0.0 mm 0.00 in0.0 mm 0.00 in0.0 mm
12:43 PM 70.7°F21.5°C 42.9°F6.1°C 37% 9.2 mph S14.8 kmh S 15.2 mph24.5 kmh 30.00 in1015.9 mb 0.00 in0.0 mm 0.00 in0.0 mm 0.00 in0.0 mm
12:48 PM 71.6°F22.0°C 43.0°F6.1°C 36% 6.8 mph SW10.9 kmh SW 13.0 mph20.9 kmh 30.00 in1015.9 mb 0.00 in0.0 mm 0.00 in0.0 mm 0.00 in0.0 mm
12:53 PM 72.5°F22.5°C 43.8°F6.6°C 36% 8.1 mph SW13.0 kmh SW 14.4 mph23.2 kmh 30.00 in1015.9 mb 0.00 in0.0 mm 0.00 in0.0 mm 0.00 in0.0 mm
12:58 PM 73.4°F23.0°C 43.9°F6.6°C 35% 7.6 mph SSW12.2 kmh SSW 14.4 mph23.2 kmh 30.00 in1015.9 mb 0.00 in0.0 mm 0.00 in0.0 mm 0.00 in0.0 mm
01:03 PM 72.8°F22.7°C 43.3°F6.3°C 35% 11.2 mph SSW18.0 kmh SSW 15.2 mph24.5 kmh 30.00 in1015.9 mb 0.00 in0.0 mm 0.00 in0.0 mm 0.00 in0.0 mm
01:10 PM 72.7°F22.6°C 43.2°F6.2°C 35% 8.6 mph S13.8 kmh S 14.8 mph23.8 kmh 30.00 in1015.9 mb 0.00 in0.0 mm 0.00 in0.0 mm 0.00 in0.0 mm
01:15 PM 72.7°F22.6°C 42.5°F5.8°C 34% 8.1 mph SW13.0 kmh SW 14.8 mph23.8 kmh 30.00 in1015.9 mb 0.00 in0.0 mm 0.00 in0.0 mm 0.00 in0.0 mm
01:20 PM 72.1°F22.3°C 42.0°F5.6°C 34% 7.5 mph SW12.1 kmh SW 20.6 mph33.2 kmh 30.00 in1015.9 mb 0.00 in0.0 mm 0.00 in0.0 mm 0.00 in0.0 mm
01:25 PM 71.8°F22.1°C 41.7°F5.4°C 34% 8.7 mph WSW14.0 kmh WSW 20.6 mph33.2 kmh 29.97 in1014.9 mb 0.00 in0.0 mm 0.00 in0.0 mm 0.00 in0.0 mm
01:30 PM 71.4°F21.9°C 41.3°F5.2°C 34% 8.4 mph SSW13.5 kmh SSW 13.0 mph20.9 kmh 29.97 in1014.9 mb 0.00 in0.0 mm 0.00 in0.0 mm 0.00 in0.0 mm
01:35 PM 70.9°F21.6°C 40.9°F4.9°C 34% 9.4 mph WSW15.1 kmh WSW 17.0 mph27.4 kmh 29.97 in1014.9 mb 0.00 in0.0 mm 0.00 in0.0 mm 0.00 in0.0 mm
01:40 PM 70.5°F21.4°C 41.3°F5.2°C 35% 7.0 mph SW11.3 kmh SW 17.0 mph27.4 kmh 29.97 in1014.9 mb 0.00 in0.0 mm 0.00 in0.0 mm 0.00 in0.0 mm
01:45 PM 70.1°F21.2°C 40.9°F4.9°C 35% 10.9 mph SSW17.5 kmh SSW 16.2 mph26.1 kmh 29.97 in1014.9 mb 0.00 in0.0 mm 0.00 in0.0 mm 0.00 in0.0 mm
01:50 PM 69.4°F20.8°C 41.1°F5.1°C 36% 8.4 mph SW13.5 kmh SW 16.2 mph26.1 kmh 29.97 in1014.9 mb 0.00 in0.0 mm 0.00 in0.0 mm 0.00 in0.0 mm
01:55 PM 68.7°F20.4°C 40.4°F4.7°C 36% 8.2 mph SW13.2 kmh SW 12.6 mph20.3 kmh 29.94 in1013.9 mb 0.00 in0.0 mm 0.00 in0.0 mm 0.00 in0.0 mm
02:01 PM 68.2°F20.1°C 40.0°F4.4°C 36% 6.0 mph SW9.7 kmh SW 12.0 mph19.3 kmh 29.94 in1013.9 mb 0.00 in0.0 mm 0.00 in0.0 mm 0.00 in0.0 mm
02:06 PM 68.0°F20.0°C 39.8°F4.3°C 36% 6.2 mph SSW10.0 kmh SSW 11.6 mph18.7 kmh 29.94 in1013.9 mb 0.00 in0.0 mm 0.00 in0.0 mm 0.00 in0.0 mm
02:11 PM 67.8°F19.9°C 40.4°F4.7°C 37% 7.6 mph S12.2 kmh S 11.6 mph18.7 kmh 29.94 in1013.9 mb 0.00 in0.0 mm 0.00 in0.0 mm 0.00 in0.0 mm
02:17 PM 67.6°F19.8°C 40.9°F4.9°C 38% 5.9 mph SW9.5 kmh SW 10.8 mph17.4 kmh 29.94 in1013.9 mb 0.00 in0.0 mm 0.00 in0.0 mm 0.00 in0.0 mm
02:23 PM 67.3°F19.6°C 40.6°F4.8°C 38% 6.2 mph SW10.0 kmh SW 11.6 mph18.7 kmh 29.97 in1014.9 mb 0.00 in0.0 mm 0.00 in0.0 mm 0.00 in0.0 mm
02:28 PM 66.7°F19.3°C 40.8°F4.9°C 39% 5.4 mph SW8.7 kmh SW 11.6 mph18.7 kmh 29.97 in1014.9 mb 0.00 in0.0 mm 0.00 in0.0 mm 0.00 in0.0 mm
02:34 PM 65.8°F18.8°C 43.2°F6.2°C 44% 4.8 mph SW7.7 kmh SW 11.2 mph18.0 kmh 29.97 in1014.9 mb 0.00 in0.0 mm 0.00 in0.0 mm 0.00 in0.0 mm
02:39 PM 64.9°F18.3°C 41.7°F5.4°C 43% 5.9 mph W9.5 kmh W 10.8 mph17.4 kmh 29.97 in1014.9 mb 0.00 in0.0 mm 0.00 in0.0 mm 0.00 in0.0 mm
02:44 PM 64.2°F17.9°C 41.1°F5.1°C 43% 7.6 mph W12.2 kmh W 10.8 mph17.4 kmh 29.97 in1014.9 mb 0.00 in0.0 mm 0.00 in0.0 mm 0.00 in0.0 mm
02:49 PM 64.2°F17.9°C 41.1°F5.1°C 43% 5.7 mph SSW9.2 kmh SSW 10.8 mph17.4 kmh 29.97 in1014.9 mb 0.00 in0.0 mm 0.00 in0.0 mm 0.00 in0.0 mm
02:54 PM 64.0°F17.8°C 41.5°F5.3°C 44% 6.1 mph W9.8 kmh W 8.6 mph13.8 kmh 29.97 in1014.9 mb 0.00 in0.0 mm 0.00 in0.0 mm 0.00 in0.0 mm
02:59 PM 63.8°F17.7°C 40.7°F4.8°C 43% 9.2 mph W14.8 kmh W 10.8 mph17.4 kmh 29.97 in1014.9 mb 0.00 in0.0 mm 0.00 in0.0 mm 0.00 in0.0 mm
03:05 PM 63.7°F17.6°C 41.3°F5.2°C 44% 5.4 mph WSW8.7 kmh WSW 10.8 mph17.4 kmh 29.97 in1014.9 mb 0.00 in0.0 mm 0.00 in0.0 mm 0.00 in0.0 mm
03:10 PM 63.5°F17.5°C 41.7°F5.4°C 45% 5.8 mph S9.3 kmh S 9.8 mph15.8 kmh 29.94 in1013.9 mb 0.00 in0.0 mm 0.00 in0.0 mm 0.00 in0.0 mm
03:16 PM 64.2°F17.9°C 41.7°F5.4°C 44% 5.3 mph S8.5 kmh S 7.6 mph12.2 kmh 29.94 in1013.9 mb 0.00 in0.0 mm 0.00 in0.0 mm 0.00 in0.0 mm
03:21 PM 65.5°F18.6°C 42.3°F5.7°C 43% 6.0 mph SW9.7 kmh SW 8.6 mph13.8 kmh 29.94 in1013.9 mb 0.00 in0.0 mm 0.00 in0.0 mm 0.00 in0.0 mm
03:26 PM 66.5°F19.2°C 42.6°F5.9°C 42% 6.2 mph SW10.0 kmh SW 8.6 mph13.8 kmh 29.91 in1012.9 mb 0.00 in0.0 mm 0.00 in0.0 mm 0.00 in0.0 mm
03:31 PM 66.9°F19.4°C 42.3°F5.7°C 41% 8.1 mph SW13.0 kmh SW 13.8 mph22.2 kmh 29.91 in1012.9 mb 0.00 in0.0 mm 0.00 in0.0 mm 0.00 in0.0 mm
03:37 PM 67.4°F19.7°C 42.7°F5.9°C 41% 9.3 mph W15.0 kmh W 14.8 mph23.8 kmh 29.91 in1012.9 mb 0.00 in0.0 mm 0.00 in0.0 mm 0.00 in0.0 mm
03:42 PM 68.0°F20.0°C 41.9°F5.5°C 39% 8.0 mph SW12.9 kmh SW 13.0 mph20.9 kmh 29.91 in1012.9 mb 0.00 in0.0 mm 0.00 in0.0 mm 0.00 in0.0 mm
03:47 PM 68.0°F20.0°C 41.2°F5.1°C 38% 9.9 mph WSW15.9 kmh WSW 13.0 mph20.9 kmh 29.91 in1012.9 mb 0.00 in0.0 mm 0.00 in0.0 mm 0.00 in0.0 mm
03:52 PM 68.2°F20.1°C 42.1°F5.6°C 39% 7.3 mph SW11.7 kmh SW 13.0 mph20.9 kmh 29.88 in1011.9 mb 0.00 in0.0 mm 0.00 in0.0 mm 0.00 in0.0 mm
04:01 PM 68.3°F20.2°C 41.5°F5.3°C 38% 8.1 mph SW13.0 kmh SW 13.4 mph21.6 kmh 29.88 in1011.9 mb 0.00 in0.0 mm 0.00 in0.0 mm 0.00 in0.0 mm
04:06 PM 68.3°F20.2°C 41.5°F5.3°C 38% 7.7 mph W12.4 kmh W 15.6 mph25.1 kmh 29.88 in1011.9 mb 0.00 in0.0 mm 0.00 in0.0 mm 0.00 in0.0 mm
04:11 PM 68.5°F20.3°C 41.7°F5.4°C 38% 6.2 mph SW10.0 kmh SW 15.6 mph25.1 kmh 29.91 in1012.9 mb 0.00 in0.0 mm 0.00 in0.0 mm 0.00 in0.0 mm
04:16 PM 68.0°F20.0°C 41.2°F5.1°C 38% 6.2 mph SW10.0 kmh SW 10.8 mph17.4 kmh 29.91 in1012.9 mb 0.00 in0.0 mm 0.00 in0.0 mm 0.00 in0.0 mm
04:21 PM 67.8°F19.9°C 41.8°F5.4°C 39% 6.1 mph W9.8 kmh W 10.8 mph17.4 kmh 29.91 in1012.9 mb 0.00 in0.0 mm 0.00 in0.0 mm 0.00 in0.0 mm
04:26 PM 67.8°F19.9°C 41.1°F5.1°C 38% 7.1 mph SW11.4 kmh SW 10.8 mph17.4 kmh 29.91 in1012.9 mb 0.00 in0.0 mm 0.00 in0.0 mm 0.00 in0.0 mm
04:31 PM 68.0°F20.0°C 41.9°F5.5°C 39% 6.0 mph SW9.7 kmh SW 10.8 mph17.4 kmh 29.91 in1012.9 mb 0.00 in0.0 mm 0.00 in0.0 mm 0.00 in0.0 mm
04:36 PM 67.6°F19.8°C 41.6°F5.3°C 39% 7.3 mph WSW11.7 kmh WSW 11.2 mph18.0 kmh 29.91 in1012.9 mb 0.00 in0.0 mm 0.00 in0.0 mm 0.00 in0.0 mm
04:41 PM 67.6°F19.8°C 41.6°F5.3°C 39% 7.0 mph WSW11.3 kmh WSW 11.2 mph18.0 kmh 29.91 in1012.9 mb 0.00 in0.0 mm 0.00 in0.0 mm 0.00 in0.0 mm
04:46 PM 67.4°F19.7°C 40.7°F4.8°C 38% 6.9 mph SW11.1 kmh SW 12.6 mph20.3 kmh 29.91 in1012.9 mb 0.00 in0.0 mm 0.00 in0.0 mm 0.00 in0.0 mm
04:51 PM 67.3°F19.6°C 40.6°F4.8°C 38% 6.3 mph SW10.1 kmh SW 12.6 mph20.3 kmh 29.91 in1012.9 mb 0.00 in0.0 mm 0.00 in0.0 mm 0.00 in0.0 mm
04:56 PM 67.4°F19.7°C 40.7°F4.8°C 38% 7.7 mph WSW12.4 kmh WSW 11.2 mph18.0 kmh 29.91 in1012.9 mb 0.00 in0.0 mm 0.00 in0.0 mm 0.00 in0.0 mm
05:01 PM 67.6°F19.8°C 40.9°F4.9°C 38% 6.5 mph WSW10.5 kmh WSW 11.6 mph18.7 kmh 29.91 in1012.9 mb 0.00 in0.0 mm 0.00 in0.0 mm 0.00 in0.0 mm
05:06 PM 68.2°F20.1°C 41.4°F5.2°C 38% 5.1 mph S8.2 kmh S 11.6 mph18.7 kmh 29.91 in1012.9 mb 0.00 in0.0 mm 0.00 in0.0 mm 0.00 in0.0 mm
05:13 PM 68.3°F20.2°C 40.8°F4.9°C 37% 7.7 mph NW12.4 kmh NW 11.6 mph18.7 kmh 29.91 in1012.9 mb 0.00 in0.0 mm 0.00 in0.0 mm 0.00 in0.0 mm
05:18 PM 70.1°F21.2°C 43.1°F6.2°C 38% 5.9 mph SW9.5 kmh SW 12.0 mph19.3 kmh 29.91 in1012.9 mb 0.00 in0.0 mm 0.00 in0.0 mm 0.00 in0.0 mm
05:24 PM 70.5°F21.4°C 42.8°F6.0°C 37% 7.6 mph WSW12.2 kmh WSW 12.0 mph19.3 kmh 29.88 in1011.9 mb 0.00 in0.0 mm 0.00 in0.0 mm 0.00 in0.0 mm
05:29 PM 70.5°F21.4°C 42.8°F6.0°C 37% 6.0 mph SW9.7 kmh SW 11.6 mph18.7 kmh 29.88 in1011.9 mb 0.00 in0.0 mm 0.00 in0.0 mm 0.00 in0.0 mm
05:34 PM 70.0°F21.1°C 42.3°F5.7°C 37% 7.1 mph SW11.4 kmh SW 12.6 mph20.3 kmh 29.88 in1011.9 mb 0.00 in0.0 mm 0.00 in0.0 mm 0.00 in0.0 mm
05:39 PM 69.6°F20.9°C 42.0°F5.6°C 37% 9.3 mph SSW15.0 kmh SSW 14.4 mph23.2 kmh 29.88 in1011.9 mb 0.00 in0.0 mm 0.00 in0.0 mm 0.00 in0.0 mm
05:46 PM 68.9°F20.5°C 42.0°F5.6°C 38% 5.5 mph S8.9 kmh S 14.4 mph23.2 kmh 29.88 in1011.9 mb 0.00 in0.0 mm 0.00 in0.0 mm 0.00 in0.0 mm
05:51 PM 68.5°F20.3°C 42.4°F5.8°C 39% 7.6 mph W12.2 kmh W 13.0 mph20.9 kmh 29.88 in1011.9 mb 0.00 in0.0 mm 0.00 in0.0 mm 0.00 in0.0 mm
05:56 PM 68.2°F20.1°C 42.1°F5.6°C 39% 6.2 mph WSW10.0 kmh WSW 11.2 mph18.0 kmh 29.88 in1011.9 mb 0.00 in0.0 mm 0.00 in0.0 mm 0.00 in0.0 mm
06:01 PM 67.4°F19.7°C 42.1°F5.6°C 40% 7.9 mph WSW12.7 kmh WSW 11.6 mph18.7 kmh 29.88 in1011.9 mb 0.00 in0.0 mm 0.00 in0.0 mm 0.00 in0.0 mm
06:06 PM 66.5°F19.2°C 42.6°F5.9°C 42% 5.0 mph SW8.0 kmh SW 11.6 mph18.7 kmh 29.88 in1011.9 mb 0.00 in0.0 mm 0.00 in0.0 mm 0.00 in0.0 mm
06:11 PM 65.8°F18.8°C 42.6°F5.9°C 43% 5.3 mph S8.5 kmh S 9.8 mph15.8 kmh 29.88 in1011.9 mb 0.00 in0.0 mm 0.00 in0.0 mm 0.00 in0.0 mm
06:16 PM 65.5°F18.6°C 42.9°F6.1°C 44% 3.6 mph SW5.8 kmh SW 7.6 mph12.2 kmh 29.88 in1011.9 mb 0.00 in0.0 mm 0.00 in0.0 mm 0.00 in0.0 mm
06:21 PM 65.1°F18.4°C 42.5°F5.8°C 44% 5.4 mph WSW8.7 kmh WSW 6.8 mph10.9 kmh 29.88 in1011.9 mb 0.00 in0.0 mm 0.00 in0.0 mm 0.00 in0.0 mm
06:26 PM 64.9°F18.3°C 43.0°F6.1°C 45% 5.1 mph SW8.2 kmh SW 8.6 mph13.8 kmh 29.88 in1011.9 mb 0.00 in0.0 mm 0.00 in0.0 mm 0.00 in0.0 mm
06:31 PM 64.7°F18.2°C 42.8°F6.0°C 45% 3.7 mph W6.0 kmh W 8.6 mph13.8 kmh 29.88 in1011.9 mb 0.00 in0.0 mm 0.00 in0.0 mm 0.00 in0.0 mm
06:37 PM 64.6°F18.1°C 42.7°F5.9°C 45% 4.1 mph WSW6.6 kmh WSW 8.0 mph12.9 kmh 29.88 in1011.9 mb 0.00 in0.0 mm 0.00 in0.0 mm 0.00 in0.0 mm
06:42 PM 64.4°F18.0°C 42.5°F5.8°C 45% 2.0 mph SSW3.2 kmh SSW 7.2 mph11.6 kmh 29.88 in1011.9 mb 0.00 in0.0 mm 0.00 in0.0 mm 0.00 in0.0 mm
06:47 PM 64.4°F18.0°C 42.5°F5.8°C 45% 4.1 mph SSE6.6 kmh SSE 5.0 mph8.0 kmh 29.88 in1011.9 mb 0.00 in0.0 mm 0.00 in0.0 mm 0.00 in0.0 mm
06:52 PM 64.4°F18.0°C 43.1°F6.2°C 46% 2.5 mph S4.0 kmh S 5.0 mph8.0 kmh 29.85 in1010.8 mb 0.00 in0.0 mm 0.00 in0.0 mm 0.00 in0.0 mm
06:57 PM 64.4°F18.0°C 43.1°F6.2°C 46% Calm Calm 4.4 mph7.1 kmh 29.85 in1010.8 mb 0.00 in0.0 mm 0.00 in0.0 mm 0.00 in0.0 mm
07:02 PM 64.4°F18.0°C 43.1°F6.2°C 46% 2.4 mph S3.9 kmh S 4.4 mph7.1 kmh 29.85 in1010.8 mb 0.00 in0.0 mm 0.00 in0.0 mm 0.00 in0.0 mm
07:07 PM 64.2°F17.9°C 42.9°F6.1°C 46% Calm Calm 3.2 mph5.1 kmh 29.88 in1011.9 mb 0.00 in0.0 mm 0.00 in0.0 mm 0.00 in0.0 mm
07:12 PM 64.0°F17.8°C 42.7°F5.9°C 46% Calm Calm 2.2 mph3.5 kmh 29.88 in1011.9 mb 0.00 in0.0 mm 0.00 in0.0 mm 0.00 in0.0 mm
07:18 PM 63.8°F17.7°C 42.5°F5.8°C 46% 1.9 mph SSE3.1 kmh SSE 3.2 mph5.1 kmh 29.88 in1011.9 mb 0.00 in0.0 mm 0.00 in0.0 mm 0.00 in0.0 mm
07:23 PM 63.7°F17.6°C 42.5°F5.8°C 46% Calm Calm 3.2 mph5.1 kmh 29.85 in1010.8 mb 0.00 in0.0 mm 0.00 in0.0 mm 0.00 in0.0 mm
07:28 PM 63.5°F17.5°C 42.3°F5.7°C 46% Calm Calm -- 29.85 in1010.8 mb 0.00 in0.0 mm 0.00 in0.0 mm 0.00 in0.0 mm
07:33 PM 63.1°F17.3°C 42.5°F5.8°C 47% Calm Calm -- 29.85 in1010.8 mb 0.00 in0.0 mm 0.00 in0.0 mm 0.00 in0.0 mm
07:38 PM 62.9°F17.2°C 42.3°F5.7°C 47% Calm Calm -- 29.85 in1010.8 mb 0.00 in0.0 mm 0.00 in0.0 mm 0.00 in0.0 mm
07:43 PM 62.8°F17.1°C 42.2°F5.7°C 47% Calm Calm -- 29.85 in1010.8 mb 0.00 in0.0 mm 0.00 in0.0 mm 0.00 in0.0 mm
07:49 PM 62.2°F16.8°C 42.2°F5.7°C 48% Calm Calm -- 29.85 in1010.8 mb 0.00 in0.0 mm 0.00 in0.0 mm 0.00 in0.0 mm
07:54 PM 61.7°F16.5°C 42.3°F5.7°C 49% 1.8 mph SW2.9 kmh SW 1.8 mph2.9 kmh 29.85 in1010.8 mb 0.00 in0.0 mm 0.00 in0.0 mm 0.00 in0.0 mm
07:59 PM 61.3°F16.3°C 41.9°F5.5°C 49% 2.4 mph SW3.9 kmh SW 3.2 mph5.1 kmh 29.85 in1010.8 mb 0.00 in0.0 mm 0.00 in0.0 mm 0.00 in0.0 mm
08:04 PM 61.0°F16.1°C 41.7°F5.4°C 49% Calm Calm 3.2 mph5.1 kmh 29.85 in1010.8 mb 0.00 in0.0 mm 0.00 in0.0 mm 0.00 in0.0 mm
08:09 PM 60.8°F16.0°C 42.0°F5.6°C 50% Calm Calm -- 29.83 in1010.2 mb 0.00 in0.0 mm 0.00 in0.0 mm 0.00 in0.0 mm
08:14 PM 60.4°F15.8°C 42.2°F5.7°C 51% Calm Calm -- 29.83 in1010.2 mb 0.00 in0.0 mm 0.00 in0.0 mm 0.00 in0.0 mm
08:19 PM 60.6°F15.9°C 42.4°F5.8°C 51% 3.7 mph SW6.0 kmh SW 4.0 mph6.4 kmh 29.83 in1010.2 mb 0.00 in0.0 mm 0.00 in0.0 mm 0.00 in0.0 mm
08:24 PM 60.8°F16.0°C 43.1°F6.2°C 52% 3.7 mph WNW6.0 kmh WNW 5.0 mph8.0 kmh 29.85 in1010.8 mb 0.00 in0.0 mm 0.00 in0.0 mm 0.00 in0.0 mm
08:29 PM 60.8°F16.0°C 42.6°F5.9°C 51% 3.0 mph WNW4.8 kmh WNW 5.0 mph8.0 kmh 29.85 in1010.8 mb 0.00 in0.0 mm 0.00 in0.0 mm 0.00 in0.0 mm
08:34 PM 60.8°F16.0°C 42.6°F5.9°C 51% 3.3 mph WNW5.3 kmh WNW 4.4 mph7.1 kmh 29.85 in1010.8 mb 0.00 in0.0 mm 0.00 in0.0 mm 0.00 in0.0 mm
08:39 PM 61.0°F16.1°C 42.7°F5.9°C 51% 3.6 mph WNW5.8 kmh WNW 4.4 mph7.1 kmh 29.85 in1010.8 mb 0.00 in0.0 mm 0.00 in0.0 mm 0.00 in0.0 mm
08:44 PM 61.0°F16.1°C 42.7°F5.9°C 51% 2.2 mph NW3.5 kmh NW 4.4 mph7.1 kmh 29.85 in1010.8 mb 0.00 in0.0 mm 0.00 in0.0 mm 0.00 in0.0 mm
08:50 PM 61.0°F16.1°C 42.7°F5.9°C 51% 2.6 mph NW4.2 kmh NW 4.0 mph6.4 kmh 29.85 in1010.8 mb 0.00 in0.0 mm 0.00 in0.0 mm 0.00 in0.0 mm
08:55 PM 60.8°F16.0°C 42.6°F5.9°C 51% 2.8 mph NW4.5 kmh NW 4.4 mph7.1 kmh 29.85 in1010.8 mb 0.00 in0.0 mm 0.00 in0.0 mm 0.00 in0.0 mm
09:00 PM 61.0°F16.1°C 42.7°F5.9°C 51% 3.5 mph NNW5.6 kmh NNW 5.0 mph8.0 kmh 29.85 in1010.8 mb 0.00 in0.0 mm 0.00 in0.0 mm 0.00 in0.0 mm
09:05 PM 60.8°F16.0°C 43.1°F6.2°C 52% 3.4 mph NW5.5 kmh NW 5.4 mph8.7 kmh 29.85 in1010.8 mb 0.00 in0.0 mm 0.00 in0.0 mm 0.00 in0.0 mm
09:10 PM 60.8°F16.0°C 42.6°F5.9°C 51% 4.0 mph WNW6.4 kmh WNW 5.4 mph8.7 kmh 29.85 in1010.8 mb 0.00 in0.0 mm 0.00 in0.0 mm 0.00 in0.0 mm
09:15 PM 60.6°F15.9°C 42.4°F5.8°C 51% 3.9 mph NW6.3 kmh NW 6.8 mph10.9 kmh 29.85 in1010.8 mb 0.00 in0.0 mm 0.00 in0.0 mm 0.00 in0.0 mm
09:20 PM 60.6°F15.9°C 42.4°F5.8°C 51% 4.2 mph NW6.8 kmh NW 6.8 mph10.9 kmh 29.85 in1010.8 mb 0.00 in0.0 mm 0.00 in0.0 mm 0.00 in0.0 mm
09:25 PM 60.6°F15.9°C 42.4°F5.8°C 51% 4.5 mph WNW7.2 kmh WNW 6.8 mph10.9 kmh 29.88 in1011.9 mb 0.00 in0.0 mm 0.00 in0.0 mm 0.00 in0.0 mm
09:30 PM 60.6°F15.9°C 41.8°F5.4°C 50% 3.7 mph NW6.0 kmh NW 7.2 mph11.6 kmh 29.88 in1011.9 mb 0.00 in0.0 mm 0.00 in0.0 mm 0.00 in0.0 mm
09:35 PM 60.4°F15.8°C 41.7°F5.4°C 50% 3.8 mph NW6.1 kmh NW 7.2 mph11.6 kmh 29.88 in1011.9 mb 0.00 in0.0 mm 0.00 in0.0 mm 0.00 in0.0 mm
09:42 PM 60.4°F15.8°C 41.7°F5.4°C 50% 4.2 mph NNW6.8 kmh NNW 6.2 mph10.0 kmh 29.88 in1011.9 mb 0.00 in0.0 mm 0.00 in0.0 mm 0.00 in0.0 mm
09:47 PM 60.4°F15.8°C 41.1°F5.1°C 49% 2.6 mph NW4.2 kmh NW 6.2 mph10.0 kmh 29.88 in1011.9 mb 0.00 in0.0 mm 0.00 in0.0 mm 0.00 in0.0 mm
09:53 PM 60.2°F15.7°C 40.9°F4.9°C 49% 3.3 mph NNW5.3 kmh NNW 5.0 mph8.0 kmh 29.88 in1011.9 mb 0.00 in0.0 mm 0.00 in0.0 mm 0.00 in0.0 mm
09:58 PM 60.2°F15.7°C 40.9°F4.9°C 49% 2.1 mph N3.4 kmh N 6.2 mph10.0 kmh 29.88 in1011.9 mb 0.00 in0.0 mm 0.00 in0.0 mm 0.00 in0.0 mm
10:03 PM 60.1°F15.6°C 40.8°F4.9°C 49% 4.2 mph N6.8 kmh N 6.8 mph10.9 kmh 29.88 in1011.9 mb 0.00 in0.0 mm 0.00 in0.0 mm 0.00 in0.0 mm
10:08 PM 60.1°F15.6°C 41.4°F5.2°C 50% 4.0 mph NNW6.4 kmh NNW 6.8 mph10.9 kmh 29.88 in1011.9 mb 0.00 in0.0 mm 0.00 in0.0 mm 0.00 in0.0 mm
10:13 PM 59.9°F15.5°C 41.2°F5.1°C 50% 2.6 mph NNW4.2 kmh NNW 4.4 mph7.1 kmh 29.88 in1011.9 mb 0.00 in0.0 mm 0.00 in0.0 mm 0.00 in0.0 mm
10:18 PM 59.9°F15.5°C 41.2°F5.1°C 50% 4.2 mph S6.8 kmh S 6.8 mph10.9 kmh 29.88 in1011.9 mb 0.00 in0.0 mm 0.00 in0.0 mm 0.00 in0.0 mm
10:23 PM 59.8°F15.4°C 41.5°F5.3°C 51% 3.2 mph SW5.1 kmh SW 6.8 mph10.9 kmh 29.88 in1011.9 mb 0.00 in0.0 mm 0.00 in0.0 mm 0.00 in0.0 mm
10:28 PM 59.6°F15.3°C 41.4°F5.2°C 51% 3.6 mph 5.8 kmh 5.4 mph8.7 kmh 29.88 in1011.9 mb 0.00 in0.0 mm 0.00 in0.0 mm 0.00 in0.0 mm
10:33 PM 59.4°F15.2°C 41.7°F5.4°C 52% 3.0 mph WSW4.8 kmh WSW 5.4 mph8.7 kmh 29.88 in1011.9 mb 0.00 in0.0 mm 0.00 in0.0 mm 0.00 in0.0 mm
10:38 PM 59.1°F15.1°C 42.4°F5.8°C 54% 4.0 mph WNW6.4 kmh WNW 5.4 mph8.7 kmh 29.88 in1011.9 mb 0.00 in0.0 mm 0.00 in0.0 mm 0.00 in0.0 mm
10:44 PM 58.7°F14.8°C 43.5°F6.4°C 57% 5.6 mph N9.0 kmh N 7.2 mph11.6 kmh 29.88 in1011.9 mb 0.00 in0.0 mm 0.00 in0.0 mm 0.00 in0.0 mm
10:49 PM 58.7°F14.8°C 44.0°F6.7°C 58% 5.5 mph N8.9 kmh N 8.6 mph13.8 kmh 29.88 in1011.9 mb 0.00 in0.0 mm 0.00 in0.0 mm 0.00 in0.0 mm
10:54 PM 58.5°F14.7°C 44.2°F6.8°C 59% 3.0 mph N4.8 kmh N 9.8 mph15.8 kmh 29.88 in1011.9 mb 0.00 in0.0 mm 0.00 in0.0 mm 0.00 in0.0 mm
10:59 PM 58.5°F14.7°C 45.1°F7.3°C 61% 5.9 mph N9.5 kmh N 9.8 mph15.8 kmh 29.88 in1011.9 mb 0.00 in0.0 mm 0.00 in0.0 mm 0.00 in0.0 mm
11:05 PM 58.4°F14.7°C 45.0°F7.2°C 61% 4.4 mph N7.1 kmh N 7.2 mph11.6 kmh 29.88 in1011.9 mb 0.00 in0.0 mm 0.00 in0.0 mm 0.00 in0.0 mm
11:10 PM 58.4°F14.7°C 45.5°F7.5°C 62% 3.8 mph N6.1 kmh N 8.6 mph13.8 kmh 29.85 in1010.8 mb 0.00 in0.0 mm 0.00 in0.0 mm 0.00 in0.0 mm
11:15 PM 58.4°F14.7°C 46.7°F8.2°C 65% 10.1 mph NNE16.3 kmh NNE 12.0 mph19.3 kmh 29.85 in1010.8 mb 0.00 in0.0 mm 0.00 in0.0 mm 0.00 in0.0 mm
11:20 PM 58.2°F14.6°C 46.1°F7.8°C 64% 4.2 mph N6.8 kmh N 12.0 mph19.3 kmh 29.85 in1010.8 mb 0.00 in0.0 mm 0.00 in0.0 mm 0.00 in0.0 mm
11:25 PM 58.0°F14.4°C 45.9°F7.7°C 64% 2.3 mph NE3.7 kmh NE 7.6 mph12.2 kmh 29.85 in1010.8 mb 0.00 in0.0 mm 0.00 in0.0 mm 0.00 in0.0 mm
11:30 PM 58.0°F14.4°C 46.3°F7.9°C 65% 3.3 mph N5.3 kmh N 9.8 mph15.8 kmh 29.85 in1010.8 mb 0.00 in0.0 mm 0.00 in0.0 mm 0.00 in0.0 mm
11:36 PM 57.5°F14.2°C 47.0°F8.3°C 68% 3.3 mph NW5.3 kmh NW 10.8 mph17.4 kmh 29.85 in1010.8 mb 0.00 in0.0 mm 0.00 in0.0 mm 0.00 in0.0 mm
11:41 PM 57.3°F14.1°C 47.2°F8.4°C 69% 4.9 mph N7.9 kmh N 6.2 mph10.0 kmh 29.85 in1010.8 mb 0.00 in0.0 mm 0.00 in0.0 mm 0.00 in0.0 mm
11:46 PM 57.1°F13.9°C 47.0°F8.3°C 69% 4.1 mph N6.6 kmh N 6.2 mph10.0 kmh 29.85 in1010.8 mb 0.00 in0.0 mm 0.00 in0.0 mm 0.00 in0.0 mm
11:51 PM 56.9°F13.8°C 47.2°F8.4°C 70% 3.5 mph 5.6 kmh 5.8 mph9.3 kmh 29.85 in1010.8 mb 0.00 in0.0 mm 0.00 in0.0 mm 0.00 in0.0 mm
11:57 PM 56.6°F13.7°C 47.7°F8.7°C 72% 2.8 mph 4.5 kmh 5.0 mph8.0 kmh 29.85 in1010.8 mb 0.00 in0.0 mm 0.00 in0.0 mm 0.00 in0.0 mm